Soham, United Kingdom
Current Conditions -  °F | °C
As of 11:58 PM on Friday 28 Nov 2014 (Local Time) from EGUN Reporting Station
Few Clouds Few Clouds  
Wind Chill: 51°   Ceiling: Unl
Heat Index: 51°   Visibility: 6mi
Dew Point: 49°   Wind: 8mph
Humidity: 92%   Direction: 100°E
Pressure: 29.76"   Gusts: NA
Location:  52.33°N, 0.34°E
Report Text: EGUN 282358Z AUTO 10007KT 9999 FEW110 11/09 A2976 RMK AO2 SLP081 T01070094 10108 20092 401150092 50005 $
Loading
Personal Weather Stations






























Interactive Weather Map New forecast layout! Learn more

10-Day Weather Forecast

Advertisements
Track Severe Weather on mobile